Time;durP1;ratioP1;P1;durP2;ratioP2;P2;SDS_P1;SDS_P2;PMS_P1;PMS_P2;Temp;Humidity;BMP_temperature;BMP_pressure;BME280_temperature;BME280_humidity;BME280_pressure;Samples;Min_cycle;Max_cycle;Signal;HPM_P1;HPM_P2
2022/08/06 00:00:14;;;;;;;8.32;7.63;;;;;;;26.52;51.14;99152.25;5091429;28;20186;-64
2022/08/06 00:02:42;;;;;;;8.95;8.18;;;;;;;26.50;51.37;99147.09;5091294;28;20194;-65
2022/08/06 00:05:10;;;;;;;8.57;7.60;;;;;;;26.50;51.41;99146.22;5090199;28;20191;-65
2022/08/06 00:07:38;;;;;;;8.70;7.97;;;;;;;26.46;51.38;99147.31;5091067;28;20194;-64
2022/08/06 00:10:06;;;;;;;8.98;8.18;;;;;;;26.41;51.71;99149.34;5091027;28;20191;-64
2022/08/06 00:12:34;;;;;;;8.15;7.00;;;;;;;26.38;51.73;99145.09;5091053;28;20248;-64
2022/08/06 00:15:02;;;;;;;8.73;7.70;;;;;;;26.35;52.04;99146.13;5090997;28;20724;-65
2022/08/06 00:17:29;;;;;;;8.07;7.22;;;;;;;26.36;51.88;99142.56;5090987;28;20195;-65
2022/08/06 00:19:55;;;;;;;8.15;7.45;;;;;;;26.32;51.86;99141.00;5090763;28;20195;-65
2022/08/06 00:22:22;;;;;;;10.57;7.40;;;;;;;26.18;51.58;99116.31;5090851;28;20191;-65
2022/08/06 00:24:50;;;;;;;7.65;6.88;;;;;;;26.31;52.07;99141.97;5090994;28;20248;-65
2022/08/06 00:27:17;;;;;;;8.38;7.47;;;;;;;26.30;52.07;99142.88;5090497;28;20444;-65
2022/08/06 00:29:44;;;;;;;7.85;7.15;;;;;;;26.33;51.79;99144.50;5090720;28;20666;-65
2022/08/06 00:32:11;;;;;;;8.55;7.38;;;;;;;26.33;51.65;99145.34;5090841;28;20198;-65
2022/08/06 00:34:37;;;;;;;10.38;7.47;;;;;;;26.32;51.77;99141.00;5090762;28;20265;-65
2022/08/06 00:37:05;;;;;;;7.93;7.28;;;;;;;26.20;52.26;99128.50;5090776;28;20195;-65
2022/08/06 00:39:32;;;;;;;11.02;7.97;;;;;;;26.26;52.16;99143.97;5090853;28;20195;-66
2022/08/06 00:42:00;;;;;;;9.05;7.25;;;;;;;26.24;52.07;99145.84;5090619;28;20198;-65
2022/08/06 00:44:27;;;;;;;9.93;7.95;;;;;;;26.26;52.09;99145.78;5090823;28;20195;-65
2022/08/06 00:46:54;;;;;;;7.93;7.22;;;;;;;26.27;52.17;99150.94;5090656;28;20576;-65
2022/08/06 00:49:21;;;;;;;10.90;7.50;;;;;;;26.28;52.57;99143.91;5090259;28;20194;-64
2022/08/06 00:51:47;;;;;;;8.25;7.47;;;;;;;26.26;53.12;99141.34;5090562;28;20202;-65
2022/08/06 00:54:14;;;;;;;7.88;7.07;;;;;;;26.18;53.44;99143.53;5089069;28;20440;-65
2022/08/06 00:56:41;;;;;;;7.97;7.18;;;;;;;26.24;53.32;99137.94;5090320;28;20248;-63
2022/08/06 00:59:09;;;;;;;8.23;7.43;;;;;;;26.26;53.58;99149.22;5090179;28;20226;-65
2022/08/06 01:01:36;;;;;;;10.15;7.78;;;;;;;26.23;53.75;99148.56;5090439;28;20696;-64
2022/08/06 01:04:03;;;;;;;8.40;7.70;;;;;;;26.20;53.55;99144.31;5090271;28;20199;-64
2022/08/06 01:06:30;;;;;;;9.07;7.70;;;;;;;26.20;53.44;99141.69;5090480;28;20194;-64
2022/08/06 01:08:56;;;;;;;10.35;9.18;;;;;;;26.19;53.66;99147.88;5090214;28;20198;-64
2022/08/06 01:11:23;;;;;;;8.88;7.55;;;;;;;26.18;53.92;99140.88;5090307;28;20202;-65
2022/08/06 01:13:50;;;;;;;9.47;8.57;;;;;;;26.16;54.53;99139.25;5090252;28;20197;-64
2022/08/06 01:16:26;;;;;;;10.87;8.50;;;;;;;26.14;54.19;99138.50;5091355;28;20593;-65
2022/08/06 01:19:02;;;;;;;13.25;8.20;;;;;;;26.11;54.42;99143.91;5094604;28;20231;-64
2022/08/06 01:21:44;;;;;;;9.23;8.17;;;;;;;26.12;54.98;99138.53;5094560;28;20218;-65
2022/08/06 01:24:32;;;;;;;9.40;7.20;;;;;;;26.11;54.92;99139.50;5094272;28;20190;-65
2022/08/06 01:27:06;;;;;;;8.85;7.95;;;;;;;26.07;54.36;99129.22;5094193;28;20190;-65
2022/08/06 01:29:40;;;;;;;10.52;8.10;;;;;;;26.02;53.34;99147.00;5094143;28;20665;-65
2022/08/06 01:32:11;;;;;;;9.07;8.27;;;;;;;25.95;51.92;99138.59;5094169;28;20660;-64
2022/08/06 01:34:41;;;;;;;9.63;8.53;;;;;;;25.92;52.00;99138.75;5093906;28;20735;-65
2022/08/06 01:37:15;;;;;;;10.97;8.20;;;;;;;25.90;51.83;99132.72;5094016;28;20202;-64
2022/08/06 01:39:45;;;;;;;10.50;9.07;;;;;;;25.90;52.45;99137.97;5094058;28;20182;-64
2022/08/06 01:42:15;;;;;;;10.83;8.23;;;;;;;25.86;52.21;99131.16;5094034;28;20240;-65
2022/08/06 01:44:47;;;;;;;9.93;7.30;;;;;;;25.72;51.79;99121.34;5094135;28;20191;-65
2022/08/06 01:47:18;;;;;;;9.48;8.45;;;;;;;25.75;51.63;99128.22;5093913;28;20191;-65
2022/08/06 01:49:49;;;;;;;9.85;8.23;;;;;;;25.73;51.96;99130.09;5093787;28;20191;-64
2022/08/06 01:52:17;;;;;;;8.88;8.07;;;;;;;25.69;51.91;99131.16;5093972;28;20190;-65
2022/08/06 01:54:48;;;;;;;11.97;7.83;;;;;;;25.64;53.96;99134.03;5093780;28;20215;-65
2022/08/06 01:57:18;;;;;;;11.27;8.50;;;;;;;25.55;55.49;99137.13;5093654;28;20201;-63
2022/08/06 01:59:50;;;;;;;9.30;8.40;;;;;;;25.43;55.82;99136.88;5093598;28;20201;-65
2022/08/06 02:02:21;;;;;;;10.83;8.80;;;;;;;25.34;56.01;99129.41;5093423;28;20581;-64
2022/08/06 02:04:53;;;;;;;10.77;7.97;;;;;;;25.29;56.13;99132.28;5093474;28;20194;-64
2022/08/06 02:07:27;;;;;;;10.63;8.63;;;;;;;25.21;56.15;99131.81;5093591;28;20264;-64
2022/08/06 02:09:56;;;;;;;10.43;9.30;;;;;;;25.12;56.30;99134.88;5093369;28;20243;-64
2022/08/06 02:12:26;;;;;;;10.07;9.07;;;;;;;25.09;56.61;99127.13;5093436;28;20195;-65
2022/08/06 02:14:59;;;;;;;10.00;8.93;;;;;;;24.94;57.24;99125.25;5093020;28;20215;-64
2022/08/06 02:17:30;;;;;;;9.40;8.43;;;;;;;24.96;57.24;99126.88;5093266;28;20199;-64
2022/08/06 02:20:00;;;;;;;9.73;8.80;;;;;;;24.92;57.44;99127.94;5093151;28;20551;-65
2022/08/06 02:22:29;;;;;;;12.17;9.03;;;;;;;24.92;57.14;99132.34;5093479;28;20201;-64
2022/08/06 02:25:01;;;;;;;9.70;8.90;;;;;;;24.85;57.84;99121.28;5093317;28;20708;-65
2022/08/06 02:27:29;;;;;;;9.87;9.00;;;;;;;24.87;57.56;99126.47;5091988;28;20194;-64
2022/08/06 02:30:00;;;;;;;9.37;8.47;;;;;;;24.86;57.79;99120.34;5093044;28;20194;-66
2022/08/06 02:32:27;;;;;;;10.67;9.57;;;;;;;24.90;57.83;99126.31;5093146;28;20191;-66
2022/08/06 02:34:55;;;;;;;10.47;9.37;;;;;;;24.85;58.20;99118.66;5092919;28;20663;-66
2022/08/06 02:37:27;;;;;;;9.90;9.00;;;;;;;24.73;57.93;99097.31;5092910;28;20663;-66
2022/08/06 02:39:58;;;;;;;10.57;8.40;;;;;;;24.83;57.91;99131.00;5092820;28;20194;-66
2022/08/06 02:42:30;;;;;;;11.13;8.77;;;;;;;24.89;57.21;99124.59;5093014;28;20663;-66
2022/08/06 02:45:04;;;;;;;9.67;8.77;;;;;;;24.90;56.77;99121.91;5092853;28;20676;-66
2022/08/06 02:47:38;;;;;;;10.10;9.10;;;;;;;25.01;56.69;99122.25;5091728;28;20432;-65
2022/08/06 02:50:08;;;;;;;10.20;9.20;;;;;;;25.01;56.80;99118.78;5092765;28;20433;-66
2022/08/06 02:52:40;;;;;;;9.60;8.70;;;;;;;25.00;56.41;99123.16;5092893;28;20194;-66
2022/08/06 02:55:12;;;;;;;9.90;8.90;;;;;;;24.86;56.20;99107.22;5092503;28;20218;-65
2022/08/06 02:57:42;;;;;;;12.97;8.87;;;;;;;24.86;55.56;99120.34;5092478;28;20222;-65
2022/08/06 03:00:11;;;;;;;10.20;8.80;;;;;;;24.80;55.85;99123.28;5092539;28;20191;-65
2022/08/06 03:02:40;;;;;;;9.50;8.53;;;;;;;24.72;55.55;99121.91;5092415;28;20194;-65
2022/08/06 03:05:11;;;;;;;9.33;8.53;;;;;;;24.60;56.28;99124.19;5092239;28;20248;-66
2022/08/06 03:07:40;;;;;;;9.30;8.50;;;;;;;24.38;56.68;99102.47;5092607;28;20194;-66
2022/08/06 03:10:09;;;;;;;9.30;8.40;;;;;;;24.44;56.49;99124.97;5092289;28;20191;-65
2022/08/06 03:12:38;;;;;;;9.77;8.98;;;;;;;24.44;56.47;99127.59;5091263;28;20523;-64
2022/08/06 03:15:07;;;;;;;10.20;9.20;;;;;;;24.49;56.12;99131.72;5092116;28;20305;-65
2022/08/06 03:17:37;;;;;;;9.40;8.60;;;;;;;24.41;56.41;99133.84;5092141;28;20201;-65
2022/08/06 03:20:06;;;;;;;9.87;8.97;;;;;;;24.23;56.44;99100.53;5092317;28;20187;-64
2022/08/06 03:22:35;;;;;;;9.77;8.93;;;;;;;24.38;56.43;99144.47;5091927;28;20187;-65
2022/08/06 03:25:04;;;;;;;10.00;9.10;;;;;;;24.34;56.56;99137.66;5092065;28;20206;-66
2022/08/06 03:27:33;;;;;;;10.43;9.30;;;;;;;24.32;56.26;99136.88;5091901;28;20191;-64
2022/08/06 03:30:00;;;;;;;9.70;8.23;;;;;;;24.37;56.43;99139.28;5091813;28;20186;-64
2022/08/06 03:32:28;;;;;;;9.90;9.00;;;;;;;24.35;56.79;99139.38;5092012;28;20195;-66
2022/08/06 03:34:58;;;;;;;9.73;8.77;;;;;;;24.36;56.92;99140.22;5091901;28;20191;-66
2022/08/06 03:37:25;;;;;;;10.10;9.10;;;;;;;24.34;57.28;99134.16;5091739;28;20195;-65
2022/08/06 03:39:53;;;;;;;8.80;7.93;;;;;;;24.40;56.85;99128.63;5091586;28;20195;-65
2022/08/06 03:42:20;;;;;;;9.63;8.63;;;;;;;24.20;57.09;99105.91;5091484;28;20187;-65
2022/08/06 03:44:47;;;;;;;9.37;8.60;;;;;;;24.36;56.71;99141.09;5091501;28;20688;-65
2022/08/06 03:47:20;;;;;;;8.17;7.37;;;;;;;24.06;56.95;99103.88;5091670;28;20187;-65
2022/08/06 03:49:53;;;;;;;9.17;8.33;;;;;;;24.21;57.41;99144.38;5091517;28;20240;-65
2022/08/06 03:52:27;;;;;;;8.20;7.43;;;;;;;24.21;57.09;99151.41;5091556;28;20256;-65
2022/08/06 03:54:58;;;;;;;8.20;7.50;;;;;;;24.08;57.29;99138.81;5091424;28;20674;-66
2022/08/06 03:57:27;;;;;;;7.23;6.67;;;;;;;24.14;57.66;99145.59;5091206;28;20673;-64
2022/08/06 04:00:00;;;;;;;9.00;8.20;;;;;;;24.19;57.71;99140.97;5091475;28;20665;-65
2022/08/06 04:02:33;;;;;;;8.20;7.43;;;;;;;24.05;57.52;99117.94;5091201;28;20190;-64
2022/08/06 04:05:01;;;;;;;9.07;8.17;;;;;;;24.30;56.75;99130.84;5091263;28;20183;-65
2022/08/06 04:07:31;;;;;;;14.37;8.20;;;;;;;24.36;57.28;99127.09;5091345;28;20198;-65
2022/08/06 04:10:00;;;;;;;9.37;8.50;;;;;;;24.36;57.00;99127.94;5091000;28;20193;-64
2022/08/06 04:12:28;;;;;;;9.70;8.90;;;;;;;24.30;56.85;99136.09;5090914;28;20191;-65
2022/08/06 04:14:55;;;;;;;9.80;8.90;;;;;;;24.18;57.28;99141.03;5091093;28;20202;-65
2022/08/06 04:17:24;;;;;;;10.27;9.07;;;;;;;24.12;57.48;99147.41;5090920;28;20223;-66
2022/08/06 04:19:53;;;;;;;9.83;8.77;;;;;;;24.15;56.99;99147.28;5090837;28;20195;-64
2022/08/06 04:22:21;;;;;;;9.38;8.57;;;;;;;24.21;57.48;99157.50;5090149;28;20454;-65
2022/08/06 04:24:49;;;;;;;10.03;8.17;;;;;;;24.33;57.35;99162.22;5090612;28;20195;-64
2022/08/06 04:27:17;;;;;;;9.93;8.93;;;;;;;24.39;56.88;99150.59;5090642;28;20190;-64
2022/08/06 04:29:46;;;;;;;10.87;8.73;;;;;;;24.41;56.80;99143.50;5090683;28;20577;-64
2022/08/06 04:32:16;;;;;;;9.00;8.20;;;;;;;24.42;57.16;99151.28;5090253;28;20640;-65
2022/08/06 04:34:44;;;;;;;9.83;8.83;;;;;;;24.34;56.73;99142.03;5090783;28;20195;-66
2022/08/06 04:37:12;;;;;;;8.63;7.93;;;;;;;24.28;57.32;99142.34;5090489;28;20211;-65
2022/08/06 04:39:39;;;;;;;9.23;8.20;;;;;;;24.30;57.41;99145.75;5090712;28;20191;-64
2022/08/06 04:42:08;;;;;;;9.57;8.57;;;;;;;24.12;57.24;99128.19;5090531;28;20205;-65
2022/08/06 04:44:36;;;;;;;8.97;8.17;;;;;;;24.25;57.30;99143.34;5090530;28;20220;-66
2022/08/06 04:47:03;;;;;;;9.20;8.40;;;;;;;24.17;57.38;99139.34;5090439;28;20278;-64
2022/08/06 04:49:30;;;;;;;9.00;8.30;;;;;;;24.16;57.35;99154.25;5090663;28;20187;-64
2022/08/06 04:51:57;;;;;;;9.03;8.23;;;;;;;24.20;57.73;99150.53;5089906;28;20574;-64
2022/08/06 04:54:24;;;;;;;9.90;8.63;;;;;;;24.18;57.63;99148.91;5090541;28;20198;-65
2022/08/06 04:56:51;;;;;;;9.37;8.30;;;;;;;24.22;57.80;99142.63;5090112;28;20272;-64
2022/08/06 04:59:19;;;;;;;9.13;8.27;;;;;;;24.24;57.85;99156.53;5090185;28;20227;-66
2022/08/06 05:01:46;;;;;;;10.40;8.77;;;;;;;24.33;57.71;99162.22;5090289;28;20194;-66
2022/08/06 05:04:13;;;;;;;8.30;7.70;;;;;;;24.38;57.09;99167.25;5089949;28;20191;-65
2022/08/06 05:06:45;;;;;;;9.05;8.20;;;;;;;24.44;57.13;99167.84;5089372;28;20436;-66
2022/08/06 05:09:18;;;;;;;8.90;8.17;;;;;;;24.63;56.62;99171.34;5090102;28;20206;-64
2022/08/06 05:11:51;;;;;;;8.93;8.13;;;;;;;24.83;56.02;99165.16;5090158;28;20195;-66
2022/08/06 05:14:25;;;;;;;8.97;8.03;;;;;;;24.95;55.88;99164.59;5090196;28;20198;-65
2022/08/06 05:16:54;;;;;;;9.10;8.30;;;;;;;25.11;55.88;99177.88;5089721;28;20222;-66
2022/08/06 05:19:29;;;;;;;13.03;7.87;;;;;;;25.20;55.53;99173.03;5089625;28;20195;-66
2022/08/06 05:21:59;;;;;;;9.40;8.30;;;;;;;25.22;55.46;99165.91;5089762;28;20711;-65
2022/08/06 05:24:26;;;;;;;8.90;8.10;;;;;;;25.20;55.40;99164.28;5089787;28;20194;-65
2022/08/06 05:26:53;;;;;;;12.23;9.40;;;;;;;25.18;55.21;99164.38;5089916;28;20199;-65
2022/08/06 05:29:22;;;;;;;8.63;7.83;;;;;;;25.22;55.49;99159.78;5089763;28;20252;-65
2022/08/06 05:31:49;;;;;;;12.93;8.30;;;;;;;25.28;55.24;99169.16;5089814;28;20436;-65
2022/08/06 05:34:16;;;;;;;8.93;8.13;;;;;;;25.48;55.00;99167.31;5090011;28;20203;-65
2022/08/06 05:36:43;;;;;;;11.43;8.47;;;;;;;25.63;54.15;99168.31;5089759;28;20531;-66
2022/08/06 05:39:10;;;;;;;9.20;8.30;;;;;;;25.73;53.79;99174.84;5089988;28;21142;-65
2022/08/06 05:41:37;;;;;;;9.33;8.10;;;;;;;25.83;53.57;99167.31;5090094;28;20605;-66
2022/08/06 05:44:04;;;;;;;8.13;7.53;;;;;;;25.76;53.75;99167.66;5090282;28;20623;-65
2022/08/06 05:46:35;;;;;;;11.43;7.80;;;;;;;25.82;53.37;99163.00;5089742;28;20195;-65
2022/08/06 05:49:07;;;;;;;8.83;8.00;;;;;;;26.02;53.32;99170.69;5089739;28;20201;-66
2022/08/06 05:51:39;;;;;;;8.70;8.00;;;;;;;26.14;53.40;99178.00;5089010;28;20199;-65
2022/08/06 05:54:14;;;;;;;8.50;7.63;;;;;;;26.29;53.49;99164.03;5089615;28;20195;-66
2022/08/06 05:56:45;;;;;;;13.00;8.47;;;;;;;26.46;52.09;99163.13;5089726;28;20232;-66
2022/08/06 05:59:29;;;;;;;8.63;7.60;;;;;;;26.56;51.35;99170.47;5089439;28;20234;-65
2022/08/06 06:01:58;;;;;;;8.20;6.70;;;;;;;26.73;50.44;99169.53;5090068;28;20237;-65
2022/08/06 06:04:26;;;;;;;8.00;7.18;;;;;;;26.72;50.25;99165.22;5092963;28;20202;-65
2022/08/06 06:06:53;;;;;;;10.40;7.20;;;;;;;26.90;49.47;99172.13;5093260;28;20299;-65
2022/08/06 06:09:20;;;;;;;7.10;6.57;;;;;;;26.95;49.29;99173.59;5093101;28;20195;-65
2022/08/06 06:11:48;;;;;;;10.20;7.32;;;;;;;27.03;48.77;99174.97;5093103;28;20195;-65
2022/08/06 06:14:28;;;;;;;8.50;7.65;;;;;;;27.12;48.37;99164.75;5093103;28;20191;-65
2022/08/06 06:17:08;;;;;;;8.25;7.45;;;;;;;27.20;48.88;99159.00;5092682;28;20214;-64
2022/08/06 06:19:41;;;;;;;16.70;7.05;;;;;;;27.28;48.17;99149.72;5093081;28;20186;-65
2022/08/06 06:22:18;;;;;;;7.20;6.70;;;;;;;27.30;47.91;99162.84;5092993;28;20187;-66
2022/08/06 06:24:51;;;;;;;8.40;7.55;;;;;;;27.41;48.26;99160.50;5092767;28;20636;-65
2022/08/06 06:27:25;;;;;;;7.93;7.15;;;;;;;27.51;47.95;99164.28;5092719;28;20194;-64
2022/08/06 06:29:58;;;;;;;8.35;7.53;;;;;;;27.50;48.26;99163.44;5092740;28;20202;-64
2022/08/06 06:32:38;;;;;;;11.60;8.38;;;;;;;27.63;47.84;99154.81;5092700;28;20202;-64
2022/08/06 06:35:15;;;;;;;8.85;7.95;;;;;;;27.74;47.94;99155.03;5092456;28;20206;-64
2022/08/06 06:37:48;;;;;;;8.75;8.07;;;;;;;27.77;48.93;99147.75;5092644;28;20693;-64
2022/08/06 06:40:39;;;;;;;8.68;7.88;;;;;;;27.89;48.75;99148.81;5092544;28;20657;-64
2022/08/06 06:43:12;;;;;;;9.60;8.40;;;;;;;27.87;48.77;99153.34;5092557;28;20441;-64
2022/08/06 06:45:49;;;;;;;8.70;7.90;;;;;;;27.97;48.46;99139.50;5092150;28;20327;-65
2022/08/06 06:48:22;;;;;;;8.70;8.00;;;;;;;28.14;48.67;99135.88;5091941;28;20197;-64
2022/08/06 06:50:54;;;;;;;9.70;7.68;;;;;;;28.15;48.12;99134.09;5091840;28;20674;-64
2022/08/06 06:53:24;;;;;;;9.38;8.40;;;;;;;28.26;48.16;99137.78;5092284;28;20195;-65
2022/08/06 06:55:54;;;;;;;8.98;8.27;;;;;;;28.26;47.72;99136.91;5091721;28;20203;-64
2022/08/06 06:58:26;;;;;;;8.68;8.05;;;;;;;28.34;48.02;99137.28;5091653;28;20223;-64
2022/08/06 07:00:56;;;;;;;8.65;7.75;;;;;;;28.40;47.49;99135.13;5091910;28;20215;-64
2022/08/06 07:03:27;;;;;;;8.77;7.90;;;;;;;28.55;47.39;99131.53;5091953;28;20376;-65
2022/08/06 07:05:57;;;;;;;8.85;7.97;;;;;;;28.68;47.12;99126.31;5092022;28;20191;-66
2022/08/06 07:08:27;;;;;;;8.82;8.13;;;;;;;28.86;46.46;99129.59;5091880;28;20602;-65
2022/08/06 07:10:55;;;;;;;9.45;8.13;;;;;;;28.72;46.24;99116.41;5091732;28;20201;-65
2022/08/06 07:13:23;;;;;;;10.25;9.35;;;;;;;28.89;46.08;99124.13;5091335;28;20198;-64
2022/08/06 07:15:52;;;;;;;9.60;8.73;;;;;;;28.97;46.06;99121.84;5091470;28;20190;-64
2022/08/06 07:18:21;;;;;;;9.13;8.15;;;;;;;29.05;45.49;99123.03;5091648;28;20700;-65
2022/08/06 07:20:49;;;;;;;9.75;8.75;;;;;;;29.05;45.82;99119.53;5091624;28;20202;-64
2022/08/06 07:23:18;;;;;;;8.95;8.15;;;;;;;29.07;45.58;99109.69;5091501;28;20202;-65
2022/08/06 07:25:47;;;;;;;9.60;8.73;;;;;;;29.20;45.87;99118.50;5091571;28;20213;-65
2022/08/06 07:28:15;;;;;;;9.52;8.63;;;;;;;29.37;45.68;99120.94;5090196;28;20568;-64
2022/08/06 07:30:44;;;;;;;8.35;7.68;;;;;;;29.47;44.73;99115.91;5091518;28;20191;-65
2022/08/06 07:33:11;;;;;;;9.27;7.97;;;;;;;29.59;44.22;99123.84;5091203;28;20197;-65
2022/08/06 07:35:42;;;;;;;9.52;8.65;;;;;;;29.77;44.10;99114.69;5090810;28;20194;-64
2022/08/06 07:38:12;;;;;;;9.05;8.18;;;;;;;29.90;43.94;99112.06;5091367;28;20218;-64
2022/08/06 07:40:43;;;;;;;9.45;8.55;;;;;;;29.97;43.55;99109.84;5090885;28;20198;-65
2022/08/06 07:43:14;;;;;;;9.80;8.75;;;;;;;30.04;43.14;99105.81;5091290;28;20198;-66
2022/08/06 07:45:41;;;;;;;10.38;9.48;;;;;;;30.20;43.55;99109.06;5090807;28;20187;-65
2022/08/06 07:48:12;;;;;;;9.30;8.35;;;;;;;30.25;42.75;99109.59;5090495;28;20191;-65
2022/08/06 07:50:43;;;;;;;9.02;7.90;;;;;;;30.30;42.89;99108.31;5090573;28;20187;-65
2022/08/06 07:53:11;;;;;;;9.70;8.68;;;;;;;30.49;42.80;99107.06;5090416;28;20198;-64
2022/08/06 07:55:39;;;;;;;9.50;8.50;;;;;;;30.74;42.47;99101.66;5090549;28;20191;-66
2022/08/06 07:58:07;;;;;;;8.82;8.02;;;;;;;30.92;42.33;99090.63;5090347;28;20407;-65
2022/08/06 08:00:36;;;;;;;9.70;8.90;;;;;;;30.99;41.52;99096.31;5089982;28;20191;-65
2022/08/06 08:08:35;;;;;;;8.77;8.07;;;;;;;30.93;41.51;99102.09;5090501;28;20185;-57
2022/08/06 08:11:02;;;;;;;9.30;8.45;;;;;;;30.87;41.51;99094.53;5089892;28;20217;-58
2022/08/06 08:13:31;;;;;;;9.13;8.32;;;;;;;30.89;41.13;99090.81;5090184;28;20202;-58
2022/08/06 08:16:00;;;;;;;9.20;8.40;;;;;;;30.88;40.38;99093.56;5090305;28;20195;-58
2022/08/06 08:18:30;;;;;;;9.65;7.85;;;;;;;30.90;40.25;99097.78;5090004;28;20245;-58
2022/08/06 08:20:58;;;;;;;8.63;7.82;;;;;;;30.82;40.51;99089.53;5089805;28;20618;-58
2022/08/06 08:23:27;;;;;;;8.75;7.90;;;;;;;30.83;40.47;99096.56;5090012;28;20199;-58
2022/08/06 08:25:57;;;;;;;8.77;7.68;;;;;;;30.88;40.24;99090.91;5089295;28;20202;-58
2022/08/06 08:28:24;;;;;;;8.40;7.60;;;;;;;30.95;39.66;99087.75;5090107;28;20689;-58
2022/08/06 08:30:51;;;;;;;10.23;7.68;;;;;;;31.10;39.40;99087.53;5089901;28;20225;-59
2022/08/06 08:33:18;;;;;;;7.80;7.07;;;;;;;31.20;39.05;99088.56;5089632;28;20239;-59
2022/08/06 08:35:46;;;;;;;7.95;7.35;;;;;;;31.16;38.35;99061.41;5089554;28;20193;-58
2022/08/06 08:38:13;;;;;;;8.35;7.57;;;;;;;31.31;37.85;99081.50;5089611;28;20226;-57
2022/08/06 08:40:42;;;;;;;7.93;7.32;;;;;;;31.37;38.60;99080.22;5089432;28;20561;-58
2022/08/06 08:43:14;;;;;;;9.95;7.50;;;;;;;31.47;38.54;99076.75;5089143;28;20195;-59
2022/08/06 08:45:45;;;;;;;7.90;7.20;;;;;;;31.49;37.83;99068.66;5089499;28;20190;-58
2022/08/06 08:48:13;;;;;;;8.25;6.47;;;;;;;31.58;37.08;99067.13;5089382;28;20187;-58
2022/08/06 08:50:43;;;;;;;7.60;6.68;;;;;;;31.57;36.99;99065.41;5089510;28;20252;-58
2022/08/06 08:53:14;;;;;;;7.32;6.72;;;;;;;31.67;36.68;99066.44;5089831;28;20574;-58
2022/08/06 08:55:41;;;;;;;6.82;6.32;;;;;;;31.66;34.90;99062.91;5088718;28;20195;-59
2022/08/06 08:58:13;;;;;;;6.03;5.55;;;;;;;31.71;34.83;99066.06;5089284;28;20229;-58
2022/08/06 09:00:40;;;;;;;6.88;6.28;;;;;;;31.69;35.59;99052.06;5089237;28;20213;-59
2022/08/06 09:03:07;;;;;;;7.25;6.55;;;;;;;31.76;35.17;99047.94;5088359;28;20550;-58
2022/08/06 09:05:36;;;;;;;11.15;6.90;;;;;;;31.76;36.18;99039.97;5089070;28;20654;-58
2022/08/06 09:08:04;;;;;;;7.20;6.45;;;;;;;32.00;35.33;99051.38;5089238;28;20218;-58
2022/08/06 09:10:31;;;;;;;8.40;6.65;;;;;;;32.15;34.90;99051.13;5088663;28;20190;-58
2022/08/06 09:12:58;;;;;;;8.07;5.97;;;;;;;32.26;34.30;99044.00;5088934;28;20217;-58
2022/08/06 09:15:26;;;;;;;6.55;5.95;;;;;;;32.20;34.67;99047.16;5088860;28;20195;-58
2022/08/06 09:17:53;;;;;;;6.28;5.63;;;;;;;32.20;34.34;99039.16;5088305;28;20713;-58
2022/08/06 09:20:20;;;;;;;7.05;6.45;;;;;;;32.04;35.02;99050.19;5089138;28;20191;-66
2022/08/06 09:22:50;;;;;;;6.78;6.20;;;;;;;31.89;34.67;99026.59;5088699;28;20197;-65
2022/08/06 09:25:41;;;;;;;7.63;5.82;;;;;;;32.15;34.57;99041.34;5089076;28;20252;-65
2022/08/06 09:28:11;;;;;;;6.85;6.03;;;;;;;32.25;34.79;99033.50;5088491;28;20194;-65
2022/08/06 09:30:40;;;;;;;6.55;5.78;;;;;;;32.19;34.46;99034.00;5089009;28;20194;-65
2022/08/06 09:33:13;;;;;;;6.65;6.15;;;;;;;32.21;34.36;99035.56;5088723;28;20591;-65
2022/08/06 09:35:40;;;;;;;6.82;6.32;;;;;;;32.33;34.10;99039.06;5089113;28;20281;-65
2022/08/06 09:38:09;;;;;;;7.45;5.80;;;;;;;32.37;34.05;99033.34;5091765;28;20215;-65
2022/08/06 09:40:36;;;;;;;6.32;5.78;;;;;;;32.51;33.53;99032.25;5092692;28;20717;-65
2022/08/06 09:43:03;;;;;;;7.10;6.50;;;;;;;32.59;33.60;99029.84;5093061;28;20194;-65
2022/08/06 09:45:30;;;;;;;6.90;6.25;;;;;;;32.72;33.91;99027.84;5093450;28;20327;-65
2022/08/06 09:48:07;;;;;;;7.88;7.07;;;;;;;32.84;34.07;99028.69;5092749;28;21058;-65
2022/08/06 09:50:40;;;;;;;8.77;7.00;;;;;;;33.09;33.92;99031.03;5092699;28;20191;-65
2022/08/06 09:53:07;;;;;;;6.85;6.25;;;;;;;33.29;33.11;99032.88;5092736;28;20206;-65
2022/08/06 09:55:34;;;;;;;10.48;6.82;;;;;;;33.43;32.52;99026.38;5093345;28;20191;-65
2022/08/06 09:58:01;;;;;;;6.00;5.57;;;;;;;33.58;33.32;99030.44;5092571;28;20223;-66
2022/08/06 10:00:30;;;;;;;6.47;5.88;;;;;;;33.76;33.08;99031.53;5093006;28;20689;-65
2022/08/06 10:02:58;;;;;;;6.97;6.38;;;;;;;33.88;31.66;99035.78;5092165;28;20630;-65
2022/08/06 10:05:27;;;;;;;7.00;5.85;;;;;;;33.98;31.84;99030.50;5093118;28;20613;-65
2022/08/06 10:08:06;;;;;;;6.30;5.80;;;;;;;33.33;32.04;99026.31;5092939;28;20565;-66
2022/08/06 10:10:45;;;;;;;8.07;5.85;;;;;;;33.09;32.50;99007.06;5092930;28;20190;-65
2022/08/06 10:13:18;;;;;;;6.60;6.00;;;;;;;33.33;32.47;99026.31;5093404;28;20425;-65
2022/08/06 10:15:46;;;;;;;6.68;6.18;;;;;;;33.25;32.36;99018.97;5092964;28;20339;-66
2022/08/06 10:18:32;;;;;;;8.15;6.18;;;;;;;33.20;32.53;99023.00;5092516;28;20230;-65
2022/08/06 10:21:05;;;;;;;6.50;6.00;;;;;;;33.16;32.80;99011.75;5093091;28;20251;-65
2022/08/06 10:23:35;;;;;;;8.90;7.82;;;;;;;33.36;34.16;99007.41;5092589;28;20191;-65
2022/08/06 10:26:04;;;;;;;13.20;9.98;;;;;;;33.66;32.63;98985.31;5092855;28;20198;-65
2022/08/06 10:28:32;;;;;;;7.63;6.63;;;;;;;33.71;32.31;98967.09;5092809;28;20191;-66
2022/08/06 10:31:02;;;;;;;7.70;7.00;;;;;;;33.94;32.19;98989.94;5092508;28;20195;-65
2022/08/06 10:33:34;;;;;;;7.40;6.57;;;;;;;34.15;31.90;98992.53;5092535;28;20542;-65
2022/08/06 10:36:08;;;;;;;6.82;6.25;;;;;;;34.02;31.46;98991.91;5092621;28;20188;-65
2022/08/06 10:38:38;;;;;;;7.55;6.38;;;;;;;34.24;31.82;98994.41;5092503;28;20268;-64
2022/08/06 10:41:09;;;;;;;6.40;5.93;;;;;;;34.26;30.52;98993.28;5092203;28;20268;-65
2022/08/06 10:43:37;;;;;;;7.05;6.35;;;;;;;34.23;31.14;98996.22;5092520;28;20191;-65
2022/08/06 10:46:06;;;;;;;6.95;6.30;;;;;;;33.99;31.14;98987.69;5092593;28;20191;-65
2022/08/06 10:48:34;;;;;;;13.43;7.60;;;;;;;34.18;31.56;98982.44;5091473;28;20187;-65
2022/08/06 10:51:03;;;;;;;7.40;6.57;;;;;;;34.21;31.01;98970.66;5092581;28;20288;-65
2022/08/06 10:53:33;;;;;;;9.15;7.18;;;;;;;34.07;31.23;98969.22;5092088;28;20238;-65
2022/08/06 10:56:05;;;;;;;9.63;8.80;;;;;;;34.34;31.72;98977.44;5092688;28;20577;-65
2022/08/06 10:58:34;;;;;;;10.75;8.23;;;;;;;34.56;31.44;98955.00;5090666;28;20795;-65
2022/08/06 11:01:05;;;;;;;7.15;6.50;;;;;;;34.87;30.54;98977.09;5092418;28;20209;-65
2022/08/06 11:03:42;;;;;;;6.75;6.07;;;;;;;34.96;30.08;98970.91;5091486;28;20191;-66
2022/08/06 11:06:44;;;;;;;6.97;6.30;;;;;;;35.09;29.95;98971.50;5091867;28;20183;-64
2022/08/06 11:09:28;;;;;;;8.07;7.38;;;;;;;35.39;30.01;98965.09;5091486;28;20183;-65
2022/08/06 11:12:14;;;;;;;7.13;6.53;;;;;;;35.56;29.63;98953.72;5091102;28;20193;-65
2022/08/06 11:14:41;;;;;;;7.13;6.53;;;;;;;35.76;30.63;98949.13;5091458;28;20194;-65
2022/08/06 11:17:08;;;;;;;7.72;6.93;;;;;;;35.84;29.28;98955.44;5091465;28;20260;-65
2022/08/06 11:19:41;;;;;;;12.23;10.90;;;;;;;35.87;30.13;98944.44;5091111;28;20219;-65
2022/08/06 11:22:08;;;;;;;8.90;8.05;;;;;;;35.94;29.37;98948.19;5091122;28;20646;-66
2022/08/06 11:24:51;;;;;;;7.63;6.80;;;;;;;35.76;29.16;98949.13;5089832;28;20487;-65
2022/08/06 11:27:48;;;;;;;7.22;6.72;;;;;;;35.48;29.37;98953.56;5090966;28;20521;-64
2022/08/06 11:30:15;;;;;;;7.47;6.70;;;;;;;35.30;29.83;98948.09;5090829;28;20202;-66
2022/08/06 11:32:46;;;;;;;6.97;6.28;;;;;;;35.11;29.82;98940.13;5091031;28;20199;-66
2022/08/06 11:35:45;;;;;;;8.75;6.97;;;;;;;35.06;29.16;98947.75;5090655;28;20191;-66
2022/08/06 11:38:14;;;;;;;7.25;6.60;;;;;;;34.83;29.99;98947.16;5090963;28;20218;-65
2022/08/06 11:40:59;;;;;;;7.47;6.80;;;;;;;34.79;29.78;98942.25;5090808;28;20194;-66
2022/08/06 11:43:47;;;;;;;7.70;7.00;;;;;;;34.66;30.42;98941.69;5090710;28;20194;-65
2022/08/06 11:46:25;;;;;;;7.55;6.95;;;;;;;34.64;30.01;98946.34;5090793;28;20664;-65
2022/08/06 11:49:18;;;;;;;7.47;6.32;;;;;;;34.69;30.18;98944.94;5091116;28;20191;-65
2022/08/06 11:51:47;;;;;;;7.57;6.97;;;;;;;34.73;30.54;98945.47;5090788;28;20194;-65